createdAt,value
2018-02-27T00:00:41.117Z,14.70
2018-02-27T00:03:08.521Z,14.57
2018-02-27T00:05:35.888Z,14.83
2018-02-27T00:08:03.386Z,17.27
2018-02-27T00:10:30.765Z,19.77
2018-02-27T00:12:58.158Z,14.83
2018-02-27T00:15:25.514Z,16.70
2018-02-27T00:17:52.880Z,13.20
2018-02-27T00:20:20.270Z,15.40
2018-02-27T00:22:47.685Z,17.80
2018-02-27T00:25:15.093Z,15.13
2018-02-27T00:27:42.463Z,17.23
2018-02-27T00:30:09.845Z,15.80
2018-02-27T00:32:37.194Z,18.83
2018-02-27T00:35:04.598Z,14.10
2018-02-27T00:37:32.594Z,16.20
2018-02-27T00:39:59.949Z,18.10
2018-02-27T00:42:27.335Z,19.20
2018-02-27T00:44:54.700Z,12.97
2018-02-27T00:47:22.093Z,19.57
2018-02-27T00:49:49.444Z,16.03
2018-02-27T00:52:16.805Z,16.10
2018-02-27T00:54:44.192Z,14.40
2018-02-27T00:57:11.601Z,18.60
2018-02-27T00:59:39.013Z,23.83
2018-02-27T01:02:06.386Z,17.53
2018-02-27T01:04:33.788Z,17.27
2018-02-27T01:07:01.134Z,17.03
2018-02-27T01:09:28.529Z,23.47
2018-02-27T01:11:55.877Z,13.37
2018-02-27T01:14:23.277Z,14.73
2018-02-27T01:16:50.658Z,16.27
2018-02-27T01:19:18.057Z,20.50
2018-02-27T01:21:45.413Z,16.40
2018-02-27T01:24:12.785Z,20.77
2018-02-27T01:26:40.189Z,18.50
2018-02-27T01:29:07.588Z,17.27
2018-02-27T01:31:34.995Z,16.87
2018-02-27T01:34:02.384Z,18.27
2018-02-27T01:36:29.749Z,16.27
2018-02-27T01:38:57.137Z,18.43
2018-02-27T01:41:24.542Z,19.27
2018-02-27T01:43:51.899Z,19.47
2018-02-27T01:46:19.260Z,18.23
2018-02-27T01:48:46.684Z,16.97
2018-02-27T01:51:15.302Z,16.40
2018-02-27T01:53:42.689Z,14.03
2018-02-27T01:56:10.102Z,18.93
2018-02-27T01:58:37.460Z,15.27
2018-02-27T02:01:04.863Z,15.60
2018-02-27T02:03:32.225Z,18.27
2018-02-27T02:05:59.572Z,25.00
2018-02-27T02:08:26.997Z,18.63
2018-02-27T02:10:54.393Z,19.07
2018-02-27T02:13:21.778Z,19.60
2018-02-27T02:15:49.173Z,13.50
2018-02-27T02:18:16.534Z,19.50
2018-02-27T02:20:44.007Z,18.90
2018-02-27T02:23:11.424Z,18.80
2018-02-27T02:25:38.853Z,20.80
2018-02-27T02:28:06.226Z,19.07
2018-02-27T02:30:33.584Z,23.13
2018-02-27T02:33:00.976Z,20.30
2018-02-27T02:35:28.382Z,18.23
2018-02-27T02:37:55.769Z,19.00
2018-02-27T02:40:23.150Z,18.43
2018-02-27T02:42:50.568Z,17.90
2018-02-27T02:45:17.945Z,19.97
2018-02-27T02:47:45.355Z,17.70
2018-02-27T02:50:12.713Z,23.07
2018-02-27T02:52:40.161Z,23.53
2018-02-27T02:55:07.528Z,17.30
2018-02-27T02:57:34.929Z,18.97
2018-02-27T03:00:02.336Z,18.50
2018-02-27T03:02:29.759Z,21.60
2018-02-27T03:04:57.130Z,21.17
2018-02-27T03:07:24.535Z,16.73
2018-02-27T03:09:51.916Z,22.47
2018-02-27T03:12:19.319Z,20.03
2018-02-27T03:14:46.682Z,21.10
2018-02-27T03:17:14.047Z,24.73
2018-02-27T03:19:41.450Z,15.57
2018-02-27T03:22:08.801Z,17.90
2018-02-27T03:24:36.201Z,28.40
2018-02-27T03:27:03.590Z,15.50
2018-02-27T03:29:30.978Z,21.97
2018-02-27T03:31:58.374Z,22.80
2018-02-27T03:34:25.732Z,18.03
2018-02-27T03:36:53.133Z,20.13
2018-02-27T03:39:20.529Z,21.90
2018-02-27T03:41:47.949Z,24.07
2018-02-27T03:44:15.334Z,19.50
2018-02-27T03:46:42.726Z,25.07
2018-02-27T03:49:10.085Z,19.00
2018-02-27T03:51:37.568Z,23.07
2018-02-27T03:54:05.033Z,22.27
2018-02-27T03:56:32.421Z,17.93
2018-02-27T03:58:59.780Z,16.90
2018-02-27T04:01:27.132Z,19.27
2018-02-27T04:03:54.547Z,19.63
2018-02-27T04:06:21.929Z,32.97
2018-02-27T04:08:49.291Z,20.80
2018-02-27T04:11:16.706Z,25.83
2018-02-27T04:13:44.074Z,25.93
2018-02-27T04:16:11.445Z,31.87
2018-02-27T04:18:38.843Z,23.30
2018-02-27T04:21:06.217Z,22.73
2018-02-27T04:23:33.633Z,29.33
2018-02-27T04:26:01.010Z,26.60
2018-02-27T04:28:28.422Z,26.30
2018-02-27T04:30:55.782Z,26.00
2018-02-27T04:33:23.225Z,22.67
2018-02-27T04:35:50.630Z,25.93
2018-02-27T04:38:17.990Z,29.87
2018-02-27T04:40:45.356Z,28.67
2018-02-27T04:43:12.746Z,25.70
2018-02-27T04:45:40.155Z,24.90
2018-02-27T04:48:07.576Z,30.27
2018-02-27T04:50:34.944Z,21.03
2018-02-27T04:53:02.323Z,29.70
2018-02-27T04:55:29.743Z,25.30
2018-02-27T04:57:57.155Z,23.30
2018-02-27T05:00:24.533Z,29.63
2018-02-27T05:02:51.942Z,30.87
2018-02-27T05:05:19.324Z,29.60
2018-02-27T05:07:46.700Z,26.00
2018-02-27T05:10:14.081Z,25.17
2018-02-27T05:12:41.444Z,28.13
2018-02-27T05:15:08.797Z,25.03
2018-02-27T05:17:36.212Z,25.63
2018-02-27T05:20:03.579Z,27.17
2018-02-27T05:22:30.965Z,26.80
2018-02-27T05:24:58.359Z,25.63
2018-02-27T05:27:25.763Z,29.10
2018-02-27T05:29:53.123Z,27.20
2018-02-27T05:32:20.502Z,24.30
2018-02-27T05:34:48.135Z,28.03
2018-02-27T05:37:15.494Z,29.67
2018-02-27T05:39:43.086Z,32.00
2018-02-27T05:42:10.457Z,26.00
2018-02-27T05:44:37.874Z,27.83
2018-02-27T05:47:05.248Z,36.27
2018-02-27T05:49:32.694Z,30.97
2018-02-27T05:52:00.090Z,31.43
2018-02-27T05:54:27.458Z,34.73
2018-02-27T05:56:54.842Z,34.13
2018-02-27T05:59:22.205Z,36.13
2018-02-27T06:01:49.610Z,28.17
2018-02-27T06:04:16.969Z,34.37
2018-02-27T06:06:44.382Z,35.60
2018-02-27T06:09:11.782Z,27.40
2018-02-27T06:11:39.183Z,32.87
2018-02-27T06:14:07.533Z,32.77
2018-02-27T06:16:34.894Z,29.83
2018-02-27T06:19:02.292Z,28.53
2018-02-27T06:21:29.663Z,29.70
2018-02-27T06:23:57.066Z,56.07
2018-02-27T06:26:24.416Z,63.37
2018-02-27T06:28:51.798Z,49.63
2018-02-27T06:31:19.213Z,28.90
2018-02-27T06:33:46.609Z,34.60
2018-02-27T06:36:13.965Z,34.93
2018-02-27T06:38:41.358Z,40.17
2018-02-27T06:41:08.780Z,27.23
2018-02-27T06:43:36.805Z,29.90
2018-02-27T06:46:04.165Z,28.67
2018-02-27T06:48:31.582Z,28.60
2018-02-27T06:50:58.974Z,33.80
2018-02-27T06:53:26.333Z,34.30
2018-02-27T06:55:53.777Z,41.20
2018-02-27T06:58:21.136Z,32.47
2018-02-27T07:00:48.525Z,45.97
2018-02-27T07:03:15.885Z,41.80
2018-02-27T07:05:43.242Z,33.90
2018-02-27T07:08:10.640Z,23.37
2018-02-27T07:10:37.992Z,23.00
2018-02-27T07:13:05.373Z,24.40
2018-02-27T07:15:32.721Z,26.17
2018-02-27T07:18:00.090Z,27.27
2018-02-27T07:20:27.478Z,23.00
2018-02-27T07:22:54.833Z,28.13
2018-02-27T07:25:22.650Z,30.20
2018-02-27T07:27:50.042Z,25.00
2018-02-27T07:30:17.444Z,16.13
2018-02-27T07:32:44.792Z,23.90
2018-02-27T07:35:12.145Z,22.23
2018-02-27T07:37:39.529Z,23.80
2018-02-27T07:40:06.882Z,19.80
2018-02-27T07:42:34.281Z,28.73
2018-02-27T07:45:01.628Z,17.47
2018-02-27T07:47:29.004Z,20.60
2018-02-27T07:49:56.385Z,21.60
2018-02-27T07:52:23.930Z,19.57
2018-02-27T07:54:51.283Z,20.27
2018-02-27T07:57:18.646Z,20.83
2018-02-27T07:59:46.034Z,20.00
2018-02-27T08:02:13.386Z,25.77
2018-02-27T08:04:40.746Z,19.10
2018-02-27T08:07:08.130Z,22.10
2018-02-27T08:09:35.508Z,17.93
2018-02-27T08:12:02.930Z,15.37
2018-02-27T08:14:30.287Z,19.37
2018-02-27T08:16:57.645Z,20.27
2018-02-27T08:19:25.041Z,18.00
2018-02-27T08:21:52.459Z,21.13
2018-02-27T08:24:19.791Z,16.80
2018-02-27T08:26:47.192Z,21.17
2018-02-27T08:29:14.553Z,17.27
2018-02-27T08:31:41.944Z,15.37
2018-02-27T08:34:09.301Z,21.20
2018-02-27T08:36:36.693Z,24.57
2018-02-27T08:39:04.081Z,18.77
2018-02-27T08:41:31.441Z,13.33
2018-02-27T08:43:58.803Z,13.90
2018-02-27T08:46:26.206Z,19.10
2018-02-27T08:48:53.550Z,17.73
2018-02-27T08:51:20.943Z,16.10
2018-02-27T08:53:48.297Z,18.30
2018-02-27T08:56:15.692Z,17.63
2018-02-27T08:58:43.149Z,21.13
2018-02-27T09:01:10.503Z,15.80
2018-02-27T09:03:37.969Z,13.97
2018-02-27T09:06:05.403Z,19.07
2018-02-27T09:08:32.785Z,13.20
2018-02-27T09:11:00.185Z,12.50
2018-02-27T09:13:27.597Z,16.37
2018-02-27T09:15:54.978Z,15.90
2018-02-27T09:18:22.344Z,19.50
2018-02-27T09:20:49.750Z,14.33
2018-02-27T09:23:17.121Z,18.50
2018-02-27T09:25:44.473Z,16.97
2018-02-27T09:28:11.873Z,16.43
2018-02-27T09:30:39.241Z,13.17
2018-02-27T09:33:06.634Z,13.37
2018-02-27T09:35:34.082Z,12.07
2018-02-27T09:38:01.446Z,14.70
2018-02-27T09:40:28.862Z,10.17
2018-02-27T09:42:56.250Z,18.30
2018-02-27T09:45:23.611Z,16.87
2018-02-27T09:47:51.007Z,14.20
2018-02-27T09:50:18.393Z,16.90
2018-02-27T09:52:45.750Z,17.40
2018-02-27T09:55:13.149Z,11.90
2018-02-27T09:57:40.500Z,15.33
2018-02-27T10:00:07.858Z,17.30
2018-02-27T10:02:36.107Z,17.90
2018-02-27T10:05:03.533Z,15.50
2018-02-27T10:07:30.928Z,13.70
2018-02-27T10:09:58.277Z,18.90
2018-02-27T10:12:25.633Z,18.47
2018-02-27T10:14:53.177Z,12.30
2018-02-27T10:17:20.521Z,12.30
2018-02-27T10:19:47.926Z,17.00
2018-02-27T10:22:15.285Z,16.30
2018-02-27T10:24:42.662Z,16.60
2018-02-27T10:27:10.066Z,14.87
2018-02-27T10:29:37.413Z,15.83
2018-02-27T10:32:04.773Z,15.60
2018-02-27T10:34:32.153Z,13.07
2018-02-27T10:36:59.536Z,19.17
2018-02-27T10:39:26.963Z,19.10
2018-02-27T10:41:54.345Z,16.67
2018-02-27T10:44:21.725Z,22.10
2018-02-27T10:46:49.116Z,12.90
2018-02-27T10:49:16.536Z,9.80
2018-02-27T10:51:43.921Z,10.43
2018-02-27T10:54:11.279Z,13.13
2018-02-27T10:56:38.674Z,13.90
2018-02-27T10:59:06.028Z,10.50
2018-02-27T11:01:33.417Z,12.87
2018-02-27T11:04:00.823Z,13.60
2018-02-27T11:06:28.213Z,15.23
2018-02-27T11:08:55.568Z,14.80
2018-02-27T11:11:22.933Z,13.83
2018-02-27T11:13:50.338Z,13.37
2018-02-27T11:16:17.711Z,11.40
2018-02-27T11:18:45.074Z,15.67
2018-02-27T11:21:12.473Z,13.43
2018-02-27T11:23:39.838Z,14.80
2018-02-27T11:26:07.242Z,14.40
2018-02-27T11:28:34.598Z,15.80
2018-02-27T11:31:01.994Z,18.40
2018-02-27T11:33:29.378Z,13.70
2018-02-27T11:35:56.738Z,16.20
2018-02-27T11:38:24.137Z,16.20
2018-02-27T11:40:51.497Z,13.10
2018-02-27T11:43:18.851Z,15.70
2018-02-27T11:45:46.261Z,11.97
2018-02-27T11:48:13.614Z,14.57
2018-02-27T11:50:41.018Z,18.53
2018-02-27T11:53:08.489Z,13.63
2018-02-27T11:55:35.902Z,18.97
2018-02-27T11:58:03.251Z,15.87
2018-02-27T12:00:30.634Z,14.10
2018-02-27T12:02:57.993Z,18.20
2018-02-27T12:05:25.390Z,16.13
2018-02-27T12:07:52.758Z,20.00
2018-02-27T12:10:20.153Z,14.57
2018-02-27T12:12:47.533Z,14.07
2018-02-27T12:15:14.881Z,14.27
2018-02-27T12:17:42.260Z,13.47
2018-02-27T12:20:09.633Z,15.20
2018-02-27T12:22:37.066Z,14.00
2018-02-27T12:25:04.435Z,16.50
2018-02-27T12:27:31.866Z,8.50
2018-02-27T12:29:59.246Z,13.60
2018-02-27T12:32:26.593Z,9.93
2018-02-27T12:34:53.990Z,14.57
2018-02-27T12:37:21.336Z,11.20
2018-02-27T12:39:48.710Z,12.47
2018-02-27T12:42:16.112Z,12.80
2018-02-27T12:44:43.505Z,13.37
2018-02-27T12:47:11.814Z,8.23
2018-02-27T12:49:39.283Z,9.33
2018-02-27T12:52:06.673Z,12.03
2018-02-27T12:54:34.022Z,9.90
2018-02-27T12:57:01.405Z,10.27
2018-02-27T12:59:28.761Z,14.40
2018-02-27T13:01:56.159Z,7.80
2018-02-27T13:04:23.494Z,9.77
2018-02-27T13:06:50.837Z,9.00
2018-02-27T13:09:18.242Z,7.73
2018-02-27T13:11:45.588Z,9.40
2018-02-27T13:14:12.945Z,10.50
2018-02-27T13:16:40.346Z,10.97
2018-02-27T13:19:07.725Z,8.40
2018-02-27T13:21:35.129Z,13.67
2018-02-27T13:24:02.481Z,9.10
2018-02-27T13:26:29.834Z,8.53
2018-02-27T13:28:57.214Z,9.60
2018-02-27T13:31:24.553Z,9.30
2018-02-27T13:33:52.080Z,7.30
2018-02-27T13:36:19.505Z,10.90
2018-02-27T13:38:46.855Z,8.80
2018-02-27T13:41:14.206Z,9.53
2018-02-27T13:43:41.737Z,8.20
2018-02-27T13:46:09.095Z,9.33
2018-02-27T13:48:45.758Z,9.80
2018-02-27T13:51:03.846Z,12.00
2018-02-27T13:53:31.275Z,8.20
2018-02-27T13:55:58.620Z,8.67
2018-02-27T13:58:25.979Z,7.60
2018-02-27T14:00:53.358Z,9.87
2018-02-27T14:03:20.706Z,8.87
2018-02-27T14:05:48.067Z,10.10
2018-02-27T14:08:15.467Z,10.77
2018-02-27T14:10:42.825Z,11.13
2018-02-27T14:13:10.173Z,14.57
2018-02-27T14:15:37.579Z,11.73
2018-02-27T14:18:04.992Z,15.27
2018-02-27T14:20:32.342Z,13.23
2018-02-27T14:22:59.738Z,12.77
2018-02-27T14:25:27.086Z,9.07
2018-02-27T14:27:54.496Z,11.13
2018-02-27T14:30:21.887Z,9.10
2018-02-27T14:32:49.233Z,12.80
2018-02-27T14:35:16.584Z,9.03
2018-02-27T14:37:43.957Z,10.33
2018-02-27T14:40:11.312Z,13.47
2018-02-27T14:42:38.672Z,8.77
2018-02-27T14:45:06.073Z,11.27
2018-02-27T14:47:33.421Z,8.43
2018-02-27T14:50:01.097Z,9.50
2018-02-27T14:52:28.449Z,9.20
2018-02-27T14:54:55.797Z,10.93
2018-02-27T14:57:23.178Z,10.80
2018-02-27T14:59:50.564Z,10.87
2018-02-27T15:02:17.924Z,12.60
2018-02-27T15:04:45.302Z,12.23
2018-02-27T15:07:12.675Z,12.67
2018-02-27T15:09:40.105Z,11.93
2018-02-27T15:12:07.454Z,11.57
2018-02-27T15:14:34.863Z,11.07
2018-02-27T15:17:02.214Z,11.10
2018-02-27T15:19:29.577Z,9.90
2018-02-27T15:21:56.954Z,9.73
2018-02-27T15:24:24.321Z,9.87
2018-02-27T15:26:51.665Z,11.20
2018-02-27T15:29:19.049Z,13.17
2018-02-27T15:31:46.414Z,15.33
2018-02-27T15:34:13.769Z,15.40
2018-02-27T15:36:41.162Z,15.47
2018-02-27T15:39:08.511Z,12.00
2018-02-27T15:41:35.865Z,17.53
2018-02-27T15:44:03.278Z,13.63
2018-02-27T15:46:30.628Z,12.60
2018-02-27T15:48:57.986Z,13.77
2018-02-27T15:51:25.485Z,12.07
2018-02-27T15:53:52.954Z,15.47
2018-02-27T15:56:20.366Z,16.20
2018-02-27T15:58:47.779Z,14.33
2018-02-27T16:01:15.186Z,20.43
2018-02-27T16:03:42.522Z,15.10
2018-02-27T16:06:09.916Z,15.90
2018-02-27T16:08:37.256Z,19.63
2018-02-27T16:11:04.630Z,19.20
2018-02-27T16:13:32.039Z,19.70
2018-02-27T16:15:59.429Z,19.37
2018-02-27T16:18:26.782Z,21.83
2018-02-27T16:20:54.206Z,20.37
2018-02-27T16:23:21.672Z,20.27
2018-02-27T16:25:49.065Z,21.83
2018-02-27T16:28:16.417Z,21.50
2018-02-27T16:30:43.809Z,26.00
2018-02-27T16:33:11.173Z,25.10
2018-02-27T16:35:38.522Z,22.27
2018-02-27T16:38:05.897Z,20.33
2018-02-27T16:40:33.286Z,26.00
2018-02-27T16:43:00.674Z,23.67
2018-02-27T16:45:28.036Z,24.70
2018-02-27T16:47:55.434Z,23.60
2018-02-27T16:50:22.834Z,27.93
2018-02-27T16:52:50.192Z,21.90
2018-02-27T16:55:17.542Z,25.43
2018-02-27T16:57:44.950Z,27.13
2018-02-27T17:00:12.308Z,23.60
2018-02-27T17:02:39.688Z,32.70
2018-02-27T17:05:07.086Z,34.00
2018-02-27T17:07:34.464Z,27.30
2018-02-27T17:10:01.846Z,30.07
2018-02-27T17:12:29.253Z,33.83
2018-02-27T17:14:56.618Z,38.67
2018-02-27T17:17:24.294Z,26.03
2018-02-27T17:19:51.713Z,37.60
2018-02-27T17:22:19.131Z,42.17
2018-02-27T17:24:47.552Z,33.63
2018-02-27T17:27:15.070Z,35.93
2018-02-27T17:29:42.499Z,30.43
2018-02-27T17:32:09.930Z,36.03
2018-02-27T17:34:37.289Z,34.70
2018-02-27T17:37:04.649Z,33.83
2018-02-27T17:39:32.121Z,29.80
2018-02-27T17:41:59.481Z,34.73
2018-02-27T17:44:26.893Z,31.90
2018-02-27T17:46:54.288Z,30.93
2018-02-27T17:49:21.698Z,38.13
2018-02-27T17:51:49.089Z,34.97
2018-02-27T17:54:16.445Z,35.30
2018-02-27T17:56:43.853Z,34.63
2018-02-27T17:59:11.271Z,31.80
2018-02-27T18:01:38.653Z,35.10
2018-02-27T18:04:06.022Z,36.47
2018-02-27T18:06:33.433Z,32.73
2018-02-27T18:09:00.824Z,31.30
2018-02-27T18:11:28.403Z,36.13
2018-02-27T18:13:55.950Z,41.70
2018-02-27T18:16:23.391Z,28.93
2018-02-27T18:18:51.285Z,32.93
2018-02-27T18:21:18.763Z,34.13
2018-02-27T18:23:46.128Z,33.47
2018-02-27T18:26:13.497Z,34.70
2018-02-27T18:28:40.903Z,36.97
2018-02-27T18:31:08.270Z,31.83
2018-02-27T18:33:35.637Z,33.33
2018-02-27T18:36:03.064Z,31.70
2018-02-27T18:38:30.449Z,29.87
2018-02-27T18:40:58.069Z,34.27
2018-02-27T18:43:25.554Z,31.03
2018-02-27T18:45:52.985Z,34.43
2018-02-27T18:48:20.366Z,35.70
2018-02-27T18:50:47.738Z,33.13
2018-02-27T18:53:15.135Z,33.20
2018-02-27T18:55:42.512Z,34.70
2018-02-27T18:58:09.874Z,34.33
2018-02-27T19:00:37.301Z,30.43
2018-02-27T19:03:04.785Z,29.73
2018-02-27T19:05:32.219Z,28.20
2018-02-27T19:07:59.600Z,38.53
2018-02-27T19:10:26.953Z,33.33
2018-02-27T19:12:54.368Z,29.50
2018-02-27T19:15:21.750Z,36.27
2018-02-27T19:17:49.180Z,34.07
2018-02-27T19:20:16.649Z,34.13
2018-02-27T19:22:44.034Z,34.87
2018-02-27T19:25:11.448Z,35.83
2018-02-27T19:27:38.836Z,26.33
2018-02-27T19:30:06.193Z,36.03
2018-02-27T19:32:33.552Z,34.40
2018-02-27T19:35:00.969Z,39.77
2018-02-27T19:37:28.367Z,32.47
2018-02-27T19:39:55.735Z,30.77
2018-02-27T19:42:23.153Z,29.87
2018-02-27T19:44:50.633Z,29.10
2018-02-27T19:47:17.985Z,33.33
2018-02-27T19:49:46.033Z,35.33
2018-02-27T19:52:13.453Z,30.20
2018-02-27T19:54:40.882Z,35.07
2018-02-27T19:57:08.285Z,30.07
2018-02-27T19:59:35.645Z,39.03
2018-02-27T20:02:03.061Z,39.67
2018-02-27T20:04:30.581Z,37.47
2018-02-27T20:06:58.066Z,29.10
2018-02-27T20:09:25.601Z,34.17
2018-02-27T20:11:53.007Z,35.50
2018-02-27T20:14:26.141Z,32.47
2018-02-27T20:16:53.529Z,39.77
2018-02-27T20:19:21.060Z,31.07
2018-02-27T20:21:48.486Z,39.33
2018-02-27T20:24:18.657Z,37.10
2018-02-27T20:26:46.041Z,35.27
2018-02-27T20:29:19.303Z,45.90
2018-02-27T20:31:46.738Z,39.53
2018-02-27T20:34:14.107Z,28.70
2018-02-27T20:36:41.490Z,36.37
2018-02-27T20:39:14.651Z,35.20
2018-02-27T20:41:42.025Z,35.60
2018-02-27T20:44:09.432Z,36.40
2018-02-27T20:46:36.833Z,32.20
2018-02-27T20:49:04.259Z,33.90
2018-02-27T20:51:31.790Z,27.80
2018-02-27T20:53:59.209Z,28.93
2018-02-27T20:56:26.674Z,23.57
2018-02-27T20:58:54.153Z,25.93
2018-02-27T21:01:21.507Z,24.03
2018-02-27T21:03:49.076Z,27.47
2018-02-27T21:06:16.453Z,25.27
2018-02-27T21:08:43.841Z,26.60
2018-02-27T21:11:11.202Z,29.23
2018-02-27T21:13:38.770Z,24.77
2018-02-27T21:16:06.129Z,21.87
2018-02-27T21:18:33.516Z,37.53
2018-02-27T21:21:05.884Z,26.53
2018-02-27T21:23:33.300Z,24.10
2018-02-27T21:26:00.722Z,34.07
2018-02-27T21:28:28.113Z,24.27
2018-02-27T21:30:55.565Z,29.57
2018-02-27T21:33:24.225Z,27.30
2018-02-27T21:35:51.605Z,25.30
2018-02-27T21:38:22.648Z,26.57
2018-02-27T21:40:50.180Z,22.07
2018-02-27T21:43:17.546Z,25.87
2018-02-27T21:45:44.898Z,24.93
2018-02-27T21:48:12.317Z,28.07
2018-02-27T21:50:39.684Z,23.50
2018-02-27T21:53:07.263Z,30.27
2018-02-27T21:55:34.669Z,27.30
2018-02-27T21:58:02.388Z,27.80
2018-02-27T22:00:29.764Z,23.63
2018-02-27T22:02:57.423Z,26.77
2018-02-27T22:05:24.840Z,25.97
2018-02-27T22:07:52.233Z,23.63
2018-02-27T22:10:19.625Z,24.03
2018-02-27T22:12:46.989Z,27.13
2018-02-27T22:15:14.367Z,25.77
2018-02-27T22:17:42.657Z,26.77
2018-02-27T22:20:10.015Z,24.20
2018-02-27T22:22:37.364Z,31.37
2018-02-27T22:25:04.797Z,27.47
2018-02-27T22:27:32.166Z,29.80
2018-02-27T22:29:59.544Z,26.70
2018-02-27T22:32:27.064Z,26.30
2018-02-27T22:34:54.458Z,33.17
2018-02-27T22:37:21.833Z,31.33
2018-02-27T22:39:49.287Z,32.43
2018-02-27T22:42:16.654Z,33.70
2018-02-27T22:44:44.033Z,29.17
2018-02-27T22:47:11.538Z,28.43
2018-02-27T22:49:38.958Z,34.27
2018-02-27T22:52:06.379Z,38.07
2018-02-27T22:54:33.759Z,34.47
2018-02-27T22:57:01.126Z,29.73
2018-02-27T22:59:28.541Z,33.33
2018-02-27T23:01:55.990Z,30.13
2018-02-27T23:04:23.381Z,31.30
2018-02-27T23:06:50.941Z,35.73
2018-02-27T23:09:18.430Z,28.20
2018-02-27T23:11:45.785Z,30.73
2018-02-27T23:14:13.188Z,31.50
2018-02-27T23:16:40.568Z,38.93
2018-02-27T23:19:07.965Z,38.27
2018-02-27T23:21:35.395Z,31.73
2018-02-27T23:24:08.011Z,33.50
2018-02-27T23:26:35.895Z,28.00
2018-02-27T23:29:06.325Z,31.30
2018-02-27T23:31:35.135Z,32.93
2018-02-27T23:34:04.073Z,35.10
2018-02-27T23:36:31.501Z,23.90
2018-02-27T23:38:58.901Z,34.63
2018-02-27T23:41:26.321Z,28.73
2018-02-27T23:43:53.693Z,29.53
2018-02-27T23:46:21.058Z,33.30
2018-02-27T23:48:48.602Z,33.93
2018-02-27T23:51:15.974Z,34.17
2018-02-27T23:53:43.578Z,38.60
2018-02-27T23:56:11.382Z,31.10
2018-02-27T23:58:38.779Z,38.13
